sensor_id;sensor_type;location;lat;lon;timestamp;temperature;humidity
60293;DHT22;52402;52.670;6.750;2023-08-07T00:01:53;14.60;99.90
60293;DHT22;52402;52.670;6.750;2023-08-07T00:04:19;14.60;99.90
60293;DHT22;52402;52.670;6.750;2023-08-07T00:06:44;14.60;99.90
60293;DHT22;52402;52.670;6.750;2023-08-07T00:09:10;14.60;99.90
60293;DHT22;52402;52.670;6.750;2023-08-07T00:11:35;14.60;99.90
60293;DHT22;52402;52.670;6.750;2023-08-07T00:14:01;14.60;99.90
60293;DHT22;52402;52.670;6.750;2023-08-07T00:16:27;14.60;99.90
60293;DHT22;52402;52.670;6.750;2023-08-07T00:18:52;14.60;99.90
60293;DHT22;52402;52.670;6.750;2023-08-07T00:21:22;14.70;99.90
60293;DHT22;52402;52.670;6.750;2023-08-07T00:23:48;14.60;99.90
60293;DHT22;52402;52.670;6.750;2023-08-07T00:26:15;14.70;99.90
60293;DHT22;52402;52.670;6.750;2023-08-07T00:28:40;14.60;99.90
60293;DHT22;52402;52.670;6.750;2023-08-07T00:31:06;14.70;99.90
60293;DHT22;52402;52.670;6.750;2023-08-07T00:33:32;14.60;99.90
60293;DHT22;52402;52.670;6.750;2023-08-07T00:35:57;14.60;99.90
60293;DHT22;52402;52.670;6.750;2023-08-07T00:38:26;14.60;99.90
60293;DHT22;52402;52.670;6.750;2023-08-07T00:40:51;14.60;99.90
60293;DHT22;52402;52.670;6.750;2023-08-07T00:43:17;14.50;99.90
60293;DHT22;52402;52.670;6.750;2023-08-07T00:45:45;14.60;99.90
60293;DHT22;52402;52.670;6.750;2023-08-07T00:48:18;14.50;99.90
60293;DHT22;52402;52.670;6.750;2023-08-07T00:50:44;14.50;99.90
60293;DHT22;52402;52.670;6.750;2023-08-07T00:53:11;14.50;99.90
60293;DHT22;52402;52.670;6.750;2023-08-07T00:55:37;14.50;99.90
60293;DHT22;52402;52.670;6.750;2023-08-07T00:58:03;14.50;99.90
60293;DHT22;52402;52.670;6.750;2023-08-07T01:00:29;14.50;99.90
60293;DHT22;52402;52.670;6.750;2023-08-07T01:02:56;14.50;99.90
60293;DHT22;52402;52.670;6.750;2023-08-07T01:05:24;14.50;99.90
60293;DHT22;52402;52.670;6.750;2023-08-07T01:07:49;14.50;99.90
60293;DHT22;52402;52.670;6.750;2023-08-07T01:16:06;14.50;99.90
60293;DHT22;52402;52.670;6.750;2023-08-07T01:18:34;14.50;99.90
60293;DHT22;52402;52.670;6.750;2023-08-07T01:21:03;14.50;99.90
60293;DHT22;52402;52.670;6.750;2023-08-07T01:23:28;14.50;99.90
60293;DHT22;52402;52.670;6.750;2023-08-07T01:25:54;14.50;99.90
60293;DHT22;52402;52.670;6.750;2023-08-07T01:28:38;14.50;99.90
60293;DHT22;52402;52.670;6.750;2023-08-07T01:31:10;14.40;99.90
60293;DHT22;52402;52.670;6.750;2023-08-07T01:34:01;14.40;99.90
60293;DHT22;52402;52.670;6.750;2023-08-07T01:36:28;14.40;99.90
60293;DHT22;52402;52.670;6.750;2023-08-07T01:38:57;14.40;99.90
60293;DHT22;52402;52.670;6.750;2023-08-07T01:41:24;14.40;99.90
60293;DHT22;52402;52.670;6.750;2023-08-07T01:43:49;14.40;99.90
60293;DHT22;52402;52.670;6.750;2023-08-07T01:46:16;14.40;99.90
60293;DHT22;52402;52.670;6.750;2023-08-07T01:48:42;14.40;99.90
60293;DHT22;52402;52.670;6.750;2023-08-07T01:51:08;14.40;99.90
60293;DHT22;52402;52.670;6.750;2023-08-07T01:53:34;14.40;99.90
60293;DHT22;52402;52.670;6.750;2023-08-07T01:55:59;14.40;99.90
60293;DHT22;52402;52.670;6.750;2023-08-07T01:58:28;14.40;99.90
60293;DHT22;52402;52.670;6.750;2023-08-07T02:01:00;14.40;99.90
60293;DHT22;52402;52.670;6.750;2023-08-07T02:03:25;14.40;99.90
60293;DHT22;52402;52.670;6.750;2023-08-07T02:05:51;14.50;99.90
60293;DHT22;52402;52.670;6.750;2023-08-07T02:08:19;14.40;99.90
60293;DHT22;52402;52.670;6.750;2023-08-07T02:10:44;14.40;99.90
60293;DHT22;52402;52.670;6.750;2023-08-07T02:13:10;14.40;99.90
60293;DHT22;52402;52.670;6.750;2023-08-07T02:15:36;14.40;99.90
60293;DHT22;52402;52.670;6.750;2023-08-07T02:18:02;14.50;99.90
60293;DHT22;52402;52.670;6.750;2023-08-07T02:20:27;14.40;99.90
60293;DHT22;52402;52.670;6.750;2023-08-07T02:22:53;14.40;99.90
60293;DHT22;52402;52.670;6.750;2023-08-07T02:25:19;14.50;99.90
60293;DHT22;52402;52.670;6.750;2023-08-07T02:27:44;14.50;99.90
60293;DHT22;52402;52.670;6.750;2023-08-07T02:30:10;14.50;99.90
60293;DHT22;52402;52.670;6.750;2023-08-07T02:32:36;14.50;99.90
60293;DHT22;52402;52.670;6.750;2023-08-07T02:35:02;14.40;99.90
60293;DHT22;52402;52.670;6.750;2023-08-07T02:37:27;14.50;99.90
60293;DHT22;52402;52.670;6.750;2023-08-07T02:39:53;14.40;99.90
60293;DHT22;52402;52.670;6.750;2023-08-07T02:42:19;14.40;99.90
60293;DHT22;52402;52.670;6.750;2023-08-07T02:44:45;14.40;99.90
60293;DHT22;52402;52.670;6.750;2023-08-07T02:47:10;14.40;99.90
60293;DHT22;52402;52.670;6.750;2023-08-07T02:49:36;14.30;99.90
60293;DHT22;52402;52.670;6.750;2023-08-07T02:52:02;14.30;99.90
60293;DHT22;52402;52.670;6.750;2023-08-07T02:54:28;14.20;99.90
60293;DHT22;52402;52.670;6.750;2023-08-07T02:56:53;14.20;99.90
60293;DHT22;52402;52.670;6.750;2023-08-07T02:59:19;14.20;99.90
60293;DHT22;52402;52.670;6.750;2023-08-07T03:01:45;14.10;99.90
60293;DHT22;52402;52.670;6.750;2023-08-07T03:04:11;14.10;99.90
60293;DHT22;52402;52.670;6.750;2023-08-07T03:06:38;14.10;99.90
60293;DHT22;52402;52.670;6.750;2023-08-07T03:09:03;14.00;99.90
60293;DHT22;52402;52.670;6.750;2023-08-07T03:11:29;14.00;99.90
60293;DHT22;52402;52.670;6.750;2023-08-07T03:13:55;14.00;99.90
60293;DHT22;52402;52.670;6.750;2023-08-07T03:16:20;13.90;99.90
60293;DHT22;52402;52.670;6.750;2023-08-07T03:18:46;13.90;99.90
60293;DHT22;52402;52.670;6.750;2023-08-07T03:21:12;13.90;99.90
60293;DHT22;52402;52.670;6.750;2023-08-07T03:23:38;13.90;99.90
60293;DHT22;52402;52.670;6.750;2023-08-07T03:26:05;13.90;99.90
60293;DHT22;52402;52.670;6.750;2023-08-07T03:28:32;13.80;99.90
60293;DHT22;52402;52.670;6.750;2023-08-07T03:30:58;13.80;99.90
60293;DHT22;52402;52.670;6.750;2023-08-07T03:33:24;13.90;99.90
60293;DHT22;52402;52.670;6.750;2023-08-07T03:35:49;13.90;99.90
60293;DHT22;52402;52.670;6.750;2023-08-07T03:38:15;13.90;99.90
60293;DHT22;52402;52.670;6.750;2023-08-07T03:40:41;13.90;99.90
60293;DHT22;52402;52.670;6.750;2023-08-07T03:43:06;13.90;99.90
60293;DHT22;52402;52.670;6.750;2023-08-07T03:45:32;13.90;99.90
60293;DHT22;52402;52.670;6.750;2023-08-07T03:47:58;13.90;99.90
60293;DHT22;52402;52.670;6.750;2023-08-07T03:50:23;13.80;99.90
60293;DHT22;52402;52.670;6.750;2023-08-07T03:52:49;13.80;99.90
60293;DHT22;52402;52.670;6.750;2023-08-07T03:55:15;13.80;99.90
60293;DHT22;52402;52.670;6.750;2023-08-07T03:57:40;13.90;99.90
60293;DHT22;52402;52.670;6.750;2023-08-07T04:00:07;13.80;99.90
60293;DHT22;52402;52.670;6.750;2023-08-07T04:02:33;13.80;99.90
60293;DHT22;52402;52.670;6.750;2023-08-07T04:04:58;13.80;99.90
60293;DHT22;52402;52.670;6.750;2023-08-07T04:07:24;13.80;99.90
60293;DHT22;52402;52.670;6.750;2023-08-07T04:09:50;13.80;99.90
60293;DHT22;52402;52.670;6.750;2023-08-07T04:12:15;13.80;99.90
60293;DHT22;52402;52.670;6.750;2023-08-07T04:14:41;13.80;99.90
60293;DHT22;52402;52.670;6.750;2023-08-07T04:17:07;13.70;99.90
60293;DHT22;52402;52.670;6.750;2023-08-07T04:19:33;13.80;99.90
60293;DHT22;52402;52.670;6.750;2023-08-07T04:21:58;13.80;99.90
60293;DHT22;52402;52.670;6.750;2023-08-07T04:24:24;13.80;99.90
60293;DHT22;52402;52.670;6.750;2023-08-07T04:26:50;13.80;99.90
60293;DHT22;52402;52.670;6.750;2023-08-07T04:29:16;13.90;99.90
60293;DHT22;52402;52.670;6.750;2023-08-07T04:31:42;13.90;99.90
60293;DHT22;52402;52.670;6.750;2023-08-07T04:34:08;14.00;99.90
60293;DHT22;52402;52.670;6.750;2023-08-07T04:36:34;14.00;99.90
60293;DHT22;52402;52.670;6.750;2023-08-07T04:38:59;14.10;99.90
60293;DHT22;52402;52.670;6.750;2023-08-07T04:41:25;14.10;99.90
60293;DHT22;52402;52.670;6.750;2023-08-07T04:43:51;14.10;99.90
60293;DHT22;52402;52.670;6.750;2023-08-07T04:46:16;14.10;99.90
60293;DHT22;52402;52.670;6.750;2023-08-07T04:48:42;14.10;99.90
60293;DHT22;52402;52.670;6.750;2023-08-07T04:51:08;14.20;99.90
60293;DHT22;52402;52.670;6.750;2023-08-07T04:53:33;14.20;99.90
60293;DHT22;52402;52.670;6.750;2023-08-07T04:56:00;14.20;99.90
60293;DHT22;52402;52.670;6.750;2023-08-07T04:58:25;14.20;99.90
60293;DHT22;52402;52.670;6.750;2023-08-07T05:00:58;14.30;99.90
60293;DHT22;52402;52.670;6.750;2023-08-07T05:03:24;14.30;99.90
60293;DHT22;52402;52.670;6.750;2023-08-07T05:05:50;14.30;99.90
60293;DHT22;52402;52.670;6.750;2023-08-07T05:08:16;14.30;99.90
60293;DHT22;52402;52.670;6.750;2023-08-07T05:10:42;14.40;99.90
60293;DHT22;52402;52.670;6.750;2023-08-07T05:13:08;14.30;99.90
60293;DHT22;52402;52.670;6.750;2023-08-07T05:15:33;14.30;99.90
60293;DHT22;52402;52.670;6.750;2023-08-07T05:17:59;14.40;99.90
60293;DHT22;52402;52.670;6.750;2023-08-07T05:20:25;14.40;99.90
60293;DHT22;52402;52.670;6.750;2023-08-07T05:22:50;14.40;99.90
60293;DHT22;52402;52.670;6.750;2023-08-07T05:25:17;14.40;99.90
60293;DHT22;52402;52.670;6.750;2023-08-07T05:27:44;14.40;99.90
60293;DHT22;52402;52.670;6.750;2023-08-07T05:30:10;14.40;99.90
60293;DHT22;52402;52.670;6.750;2023-08-07T05:32:36;14.40;99.90
60293;DHT22;52402;52.670;6.750;2023-08-07T05:35:06;14.40;99.90
60293;DHT22;52402;52.670;6.750;2023-08-07T05:37:33;14.40;99.90
60293;DHT22;52402;52.670;6.750;2023-08-07T05:39:59;14.40;99.90
60293;DHT22;52402;52.670;6.750;2023-08-07T05:42:25;14.40;99.90
60293;DHT22;52402;52.670;6.750;2023-08-07T05:44:50;14.50;99.90
60293;DHT22;52402;52.670;6.750;2023-08-07T05:47:16;14.60;99.90
60293;DHT22;52402;52.670;6.750;2023-08-07T05:49:42;14.60;99.90
60293;DHT22;52402;52.670;6.750;2023-08-07T05:52:08;14.60;99.90
60293;DHT22;52402;52.670;6.750;2023-08-07T05:54:34;14.70;99.90
60293;DHT22;52402;52.670;6.750;2023-08-07T05:56:59;14.60;99.90
60293;DHT22;52402;52.670;6.750;2023-08-07T05:59:25;14.60;99.90
60293;DHT22;52402;52.670;6.750;2023-08-07T06:01:51;14.60;99.90
60293;DHT22;52402;52.670;6.750;2023-08-07T06:04:17;14.50;99.90
60293;DHT22;52402;52.670;6.750;2023-08-07T06:06:43;14.50;99.90
60293;DHT22;52402;52.670;6.750;2023-08-07T06:09:14;14.50;99.90
60293;DHT22;52402;52.670;6.750;2023-08-07T06:11:47;14.50;99.90
60293;DHT22;52402;52.670;6.750;2023-08-07T06:14:13;14.40;99.90
60293;DHT22;52402;52.670;6.750;2023-08-07T06:16:38;14.50;99.90
60293;DHT22;52402;52.670;6.750;2023-08-07T06:19:04;14.50;99.90
60293;DHT22;52402;52.670;6.750;2023-08-07T06:21:30;14.40;99.90
60293;DHT22;52402;52.670;6.750;2023-08-07T06:23:56;14.50;99.90
60293;DHT22;52402;52.670;6.750;2023-08-07T06:26:22;14.50;99.90
60293;DHT22;52402;52.670;6.750;2023-08-07T06:28:48;14.50;99.90
60293;DHT22;52402;52.670;6.750;2023-08-07T06:31:16;14.50;99.90
60293;DHT22;52402;52.670;6.750;2023-08-07T06:33:41;14.50;99.90
60293;DHT22;52402;52.670;6.750;2023-08-07T06:36:07;14.60;99.90
60293;DHT22;52402;52.670;6.750;2023-08-07T06:39:00;14.60;99.90
60293;DHT22;52402;52.670;6.750;2023-08-07T06:41:25;14.70;99.90
60293;DHT22;52402;52.670;6.750;2023-08-07T06:43:51;14.80;99.90
60293;DHT22;52402;52.670;6.750;2023-08-07T06:46:17;15.00;99.90
60293;DHT22;52402;52.670;6.750;2023-08-07T06:48:43;15.20;99.90
60293;DHT22;52402;52.670;6.750;2023-08-07T06:51:09;15.20;99.90
60293;DHT22;52402;52.670;6.750;2023-08-07T06:53:34;15.10;99.90
60293;DHT22;52402;52.670;6.750;2023-08-07T06:56:00;15.20;99.90
60293;DHT22;52402;52.670;6.750;2023-08-07T06:58:26;15.20;99.90
60293;DHT22;52402;52.670;6.750;2023-08-07T07:00:52;15.20;99.90
60293;DHT22;52402;52.670;6.750;2023-08-07T07:03:17;15.10;99.90
60293;DHT22;52402;52.670;6.750;2023-08-07T07:05:43;14.90;99.90
60293;DHT22;52402;52.670;6.750;2023-08-07T07:08:08;14.80;99.90
60293;DHT22;52402;52.670;6.750;2023-08-07T07:10:34;14.70;99.90
60293;DHT22;52402;52.670;6.750;2023-08-07T07:13:00;14.60;99.90
60293;DHT22;52402;52.670;6.750;2023-08-07T07:15:25;14.60;99.90
60293;DHT22;52402;52.670;6.750;2023-08-07T07:17:51;14.70;99.90
60293;DHT22;52402;52.670;6.750;2023-08-07T07:20:18;14.70;99.90
60293;DHT22;52402;52.670;6.750;2023-08-07T07:22:44;14.80;99.90
60293;DHT22;52402;52.670;6.750;2023-08-07T07:25:09;14.90;99.90
60293;DHT22;52402;52.670;6.750;2023-08-07T07:27:35;15.00;99.90
60293;DHT22;52402;52.670;6.750;2023-08-07T07:30:01;15.10;99.90
60293;DHT22;52402;52.670;6.750;2023-08-07T07:32:26;15.20;99.90
60293;DHT22;52402;52.670;6.750;2023-08-07T07:34:52;15.30;99.90
60293;DHT22;52402;52.670;6.750;2023-08-07T07:37:18;15.30;99.90
60293;DHT22;52402;52.670;6.750;2023-08-07T07:39:43;15.50;99.90
60293;DHT22;52402;52.670;6.750;2023-08-07T07:42:09;15.60;99.90
60293;DHT22;52402;52.670;6.750;2023-08-07T07:44:34;15.70;99.90
60293;DHT22;52402;52.670;6.750;2023-08-07T07:47:05;15.80;99.90
60293;DHT22;52402;52.670;6.750;2023-08-07T07:49:32;16.00;99.90
60293;DHT22;52402;52.670;6.750;2023-08-07T07:51:58;16.10;99.90
60293;DHT22;52402;52.670;6.750;2023-08-07T07:54:24;16.10;99.90
60293;DHT22;52402;52.670;6.750;2023-08-07T07:56:49;16.10;99.90
60293;DHT22;52402;52.670;6.750;2023-08-07T07:59:15;16.10;99.90
60293;DHT22;52402;52.670;6.750;2023-08-07T08:01:41;16.10;99.90
60293;DHT22;52402;52.670;6.750;2023-08-07T08:04:07;16.10;99.90
60293;DHT22;52402;52.670;6.750;2023-08-07T08:06:32;16.10;99.90
60293;DHT22;52402;52.670;6.750;2023-08-07T08:08:58;16.00;99.90
60293;DHT22;52402;52.670;6.750;2023-08-07T08:11:25;15.90;99.90
60293;DHT22;52402;52.670;6.750;2023-08-07T08:13:50;15.90;99.90
60293;DHT22;52402;52.670;6.750;2023-08-07T08:16:16;15.60;99.90
60293;DHT22;52402;52.670;6.750;2023-08-07T08:18:41;15.40;99.90
60293;DHT22;52402;52.670;6.750;2023-08-07T08:21:07;15.20;99.90
60293;DHT22;52402;52.670;6.750;2023-08-07T08:23:32;14.80;99.90
60293;DHT22;52402;52.670;6.750;2023-08-07T08:25:58;14.70;99.90
60293;DHT22;52402;52.670;6.750;2023-08-07T08:28:24;14.60;99.90
60293;DHT22;52402;52.670;6.750;2023-08-07T08:30:51;14.60;99.90
60293;DHT22;52402;52.670;6.750;2023-08-07T08:33:16;14.70;99.90
60293;DHT22;52402;52.670;6.750;2023-08-07T08:35:43;14.90;99.90
60293;DHT22;52402;52.670;6.750;2023-08-07T08:38:09;15.00;99.90
60293;DHT22;52402;52.670;6.750;2023-08-07T08:40:36;15.20;99.90
60293;DHT22;52402;52.670;6.750;2023-08-07T08:43:04;15.30;99.90
60293;DHT22;52402;52.670;6.750;2023-08-07T08:45:31;15.50;99.90
60293;DHT22;52402;52.670;6.750;2023-08-07T08:48:03;15.50;99.90
60293;DHT22;52402;52.670;6.750;2023-08-07T08:50:29;15.50;99.90
60293;DHT22;52402;52.670;6.750;2023-08-07T08:52:56;15.60;99.90
60293;DHT22;52402;52.670;6.750;2023-08-07T08:55:23;15.70;99.90
60293;DHT22;52402;52.670;6.750;2023-08-07T08:57:49;15.90;99.90
60293;DHT22;52402;52.670;6.750;2023-08-07T09:00:19;16.20;99.90
60293;DHT22;52402;52.670;6.750;2023-08-07T09:02:48;16.20;99.90
60293;DHT22;52402;52.670;6.750;2023-08-07T09:05:15;16.00;99.90
60293;DHT22;52402;52.670;6.750;2023-08-07T09:07:42;15.60;99.90
60293;DHT22;52402;52.670;6.750;2023-08-07T09:10:09;15.10;99.90
60293;DHT22;52402;52.670;6.750;2023-08-07T09:12:58;15.00;99.90
60293;DHT22;52402;52.670;6.750;2023-08-07T09:15:25;15.10;99.90
60293;DHT22;52402;52.670;6.750;2023-08-07T09:17:54;15.20;99.90
60293;DHT22;52402;52.670;6.750;2023-08-07T09:20:21;15.20;99.90
60293;DHT22;52402;52.670;6.750;2023-08-07T09:22:48;15.30;99.90
60293;DHT22;52402;52.670;6.750;2023-08-07T09:25:14;15.50;99.90
60293;DHT22;52402;52.670;6.750;2023-08-07T09:27:40;15.50;99.90
60293;DHT22;52402;52.670;6.750;2023-08-07T09:30:07;15.40;99.90
60293;DHT22;52402;52.670;6.750;2023-08-07T09:32:36;15.40;99.90
60293;DHT22;52402;52.670;6.750;2023-08-07T09:35:04;15.60;99.90
60293;DHT22;52402;52.670;6.750;2023-08-07T09:37:30;15.70;99.90
60293;DHT22;52402;52.670;6.750;2023-08-07T09:39:56;15.70;99.90
60293;DHT22;52402;52.670;6.750;2023-08-07T09:42:22;15.80;99.90
60293;DHT22;52402;52.670;6.750;2023-08-07T09:44:48;15.90;99.90
60293;DHT22;52402;52.670;6.750;2023-08-07T09:47:17;16.00;99.90
60293;DHT22;52402;52.670;6.750;2023-08-07T09:49:45;16.10;99.90
60293;DHT22;52402;52.670;6.750;2023-08-07T09:52:15;16.20;99.90
60293;DHT22;52402;52.670;6.750;2023-08-07T09:54:41;16.40;99.90
60293;DHT22;52402;52.670;6.750;2023-08-07T09:57:06;16.50;99.90
60293;DHT22;52402;52.670;6.750;2023-08-07T09:59:33;16.60;99.90
60293;DHT22;52402;52.670;6.750;2023-08-07T10:02:00;16.80;99.90
60293;DHT22;52402;52.670;6.750;2023-08-07T10:04:28;17.00;99.90
60293;DHT22;52402;52.670;6.750;2023-08-07T10:06:53;17.20;99.90
60293;DHT22;52402;52.670;6.750;2023-08-07T10:09:20;17.10;99.90
60293;DHT22;52402;52.670;6.750;2023-08-07T10:11:46;17.00;99.90
60293;DHT22;52402;52.670;6.750;2023-08-07T10:14:14;16.90;99.90
60293;DHT22;52402;52.670;6.750;2023-08-07T10:16:40;16.90;99.90
60293;DHT22;52402;52.670;6.750;2023-08-07T10:19:07;16.80;99.90
60293;DHT22;52402;52.670;6.750;2023-08-07T10:21:35;16.70;99.90
60293;DHT22;52402;52.670;6.750;2023-08-07T10:24:04;16.70;99.90
60293;DHT22;52402;52.670;6.750;2023-08-07T10:26:32;17.00;99.90
60293;DHT22;52402;52.670;6.750;2023-08-07T10:28:58;17.10;99.90
60293;DHT22;52402;52.670;6.750;2023-08-07T10:31:26;17.30;99.90
60293;DHT22;52402;52.670;6.750;2023-08-07T10:33:52;17.60;99.90
60293;DHT22;52402;52.670;6.750;2023-08-07T10:36:19;17.70;99.90
60293;DHT22;52402;52.670;6.750;2023-08-07T10:38:49;17.80;99.90
60293;DHT22;52402;52.670;6.750;2023-08-07T10:41:15;18.20;99.90
60293;DHT22;52402;52.670;6.750;2023-08-07T10:43:44;18.50;99.90
60293;DHT22;52402;52.670;6.750;2023-08-07T10:46:12;18.50;99.90
60293;DHT22;52402;52.670;6.750;2023-08-07T10:48:54;18.10;99.90
60293;DHT22;52402;52.670;6.750;2023-08-07T10:51:19;18.00;99.90
60293;DHT22;52402;52.670;6.750;2023-08-07T10:53:49;17.70;99.90
60293;DHT22;52402;52.670;6.750;2023-08-07T10:58:49;18.00;99.90
60293;DHT22;52402;52.670;6.750;2023-08-07T11:01:15;17.90;99.90
60293;DHT22;52402;52.670;6.750;2023-08-07T11:03:59;17.90;99.90
60293;DHT22;52402;52.670;6.750;2023-08-07T11:06:30;17.60;99.90
60293;DHT22;52402;52.670;6.750;2023-08-07T11:09:03;17.40;99.90
60293;DHT22;52402;52.670;6.750;2023-08-07T11:11:47;17.30;99.90
60293;DHT22;52402;52.670;6.750;2023-08-07T11:14:16;17.20;99.90
60293;DHT22;52402;52.670;6.750;2023-08-07T11:16:42;17.20;99.90
60293;DHT22;52402;52.670;6.750;2023-08-07T11:19:09;17.30;99.90
60293;DHT22;52402;52.670;6.750;2023-08-07T11:21:36;17.60;99.90
60293;DHT22;52402;52.670;6.750;2023-08-07T11:24:02;18.00;99.90
60293;DHT22;52402;52.670;6.750;2023-08-07T11:26:28;18.20;99.90
60293;DHT22;52402;52.670;6.750;2023-08-07T11:28:55;18.10;99.90
60293;DHT22;52402;52.670;6.750;2023-08-07T11:31:22;18.00;99.90
60293;DHT22;52402;52.670;6.750;2023-08-07T11:33:55;17.80;99.90
60293;DHT22;52402;52.670;6.750;2023-08-07T11:36:23;17.80;99.90
60293;DHT22;52402;52.670;6.750;2023-08-07T11:38:51;17.80;99.90
60293;DHT22;52402;52.670;6.750;2023-08-07T11:41:17;17.90;99.90
60293;DHT22;52402;52.670;6.750;2023-08-07T11:43:44;18.20;99.90
60293;DHT22;52402;52.670;6.750;2023-08-07T11:46:14;18.50;99.90
60293;DHT22;52402;52.670;6.750;2023-08-07T11:48:42;18.50;99.90
60293;DHT22;52402;52.670;6.750;2023-08-07T11:51:08;18.50;99.90
60293;DHT22;52402;52.670;6.750;2023-08-07T11:53:35;18.30;99.90
60293;DHT22;52402;52.670;6.750;2023-08-07T11:56:10;18.10;99.90
60293;DHT22;52402;52.670;6.750;2023-08-07T11:58:46;17.80;99.90
60293;DHT22;52402;52.670;6.750;2023-08-07T12:01:14;18.20;99.90
60293;DHT22;52402;52.670;6.750;2023-08-07T12:06:34;19.10;99.90
60293;DHT22;52402;52.670;6.750;2023-08-07T12:09:11;19.70;99.90
60293;DHT22;52402;52.670;6.750;2023-08-07T12:11:38;19.40;99.90
60293;DHT22;52402;52.670;6.750;2023-08-07T12:14:07;18.80;99.90
60293;DHT22;52402;52.670;6.750;2023-08-07T12:16:34;18.70;99.90
60293;DHT22;52402;52.670;6.750;2023-08-07T12:19:01;18.50;99.90
60293;DHT22;52402;52.670;6.750;2023-08-07T12:21:27;18.30;99.90
60293;DHT22;52402;52.670;6.750;2023-08-07T12:23:56;18.30;99.90
60293;DHT22;52402;52.670;6.750;2023-08-07T12:26:22;18.20;99.90
60293;DHT22;52402;52.670;6.750;2023-08-07T12:28:48;18.20;99.90
60293;DHT22;52402;52.670;6.750;2023-08-07T12:31:14;18.10;99.90
60293;DHT22;52402;52.670;6.750;2023-08-07T12:33:40;18.40;99.90
60293;DHT22;52402;52.670;6.750;2023-08-07T12:36:06;18.80;99.90
60293;DHT22;52402;52.670;6.750;2023-08-07T12:38:33;19.40;99.90
60293;DHT22;52402;52.670;6.750;2023-08-07T12:40:59;19.70;99.90
60293;DHT22;52402;52.670;6.750;2023-08-07T12:43:25;19.50;99.90
60293;DHT22;52402;52.670;6.750;2023-08-07T12:45:51;18.80;99.90
60293;DHT22;52402;52.670;6.750;2023-08-07T12:48:27;18.40;99.90
60293;DHT22;52402;52.670;6.750;2023-08-07T12:50:54;18.30;99.90
60293;DHT22;52402;52.670;6.750;2023-08-07T12:53:19;18.00;99.90
60293;DHT22;52402;52.670;6.750;2023-08-07T12:55:45;18.00;99.90
60293;DHT22;52402;52.670;6.750;2023-08-07T12:58:22;18.00;99.90
60293;DHT22;52402;52.670;6.750;2023-08-07T13:00:51;18.20;99.90
60293;DHT22;52402;52.670;6.750;2023-08-07T13:03:17;18.00;99.90
60293;DHT22;52402;52.670;6.750;2023-08-07T13:05:42;17.80;99.90
60293;DHT22;52402;52.670;6.750;2023-08-07T13:08:17;18.00;99.90
60293;DHT22;52402;52.670;6.750;2023-08-07T13:10:42;18.10;99.90
60293;DHT22;52402;52.670;6.750;2023-08-07T13:13:08;17.90;99.90
60293;DHT22;52402;52.670;6.750;2023-08-07T13:15:34;17.80;99.90
60293;DHT22;52402;52.670;6.750;2023-08-07T13:17:59;17.60;99.90
60293;DHT22;52402;52.670;6.750;2023-08-07T13:20:26;17.30;99.90
60293;DHT22;52402;52.670;6.750;2023-08-07T13:22:52;17.20;99.90
60293;DHT22;52402;52.670;6.750;2023-08-07T13:25:18;16.90;99.90
60293;DHT22;52402;52.670;6.750;2023-08-07T13:27:44;16.40;99.90
60293;DHT22;52402;52.670;6.750;2023-08-07T13:30:10;16.10;99.90
60293;DHT22;52402;52.670;6.750;2023-08-07T13:32:36;15.80;99.90
60293;DHT22;52402;52.670;6.750;2023-08-07T13:35:02;15.90;99.90
60293;DHT22;52402;52.670;6.750;2023-08-07T13:37:29;16.00;99.90
60293;DHT22;52402;52.670;6.750;2023-08-07T13:40:00;15.80;99.90
60293;DHT22;52402;52.670;6.750;2023-08-07T13:42:28;15.80;99.90
60293;DHT22;52402;52.670;6.750;2023-08-07T13:44:58;15.70;99.90
60293;DHT22;52402;52.670;6.750;2023-08-07T13:47:23;15.50;99.90
60293;DHT22;52402;52.670;6.750;2023-08-07T13:49:52;15.40;99.90
60293;DHT22;52402;52.670;6.750;2023-08-07T13:52:19;15.30;99.90
60293;DHT22;52402;52.670;6.750;2023-08-07T13:54:45;15.20;99.90
60293;DHT22;52402;52.670;6.750;2023-08-07T13:57:12;15.30;99.90
60293;DHT22;52402;52.670;6.750;2023-08-07T13:59:38;15.30;99.90
60293;DHT22;52402;52.670;6.750;2023-08-07T14:02:04;15.20;99.90
60293;DHT22;52402;52.670;6.750;2023-08-07T14:04:31;15.30;99.90
60293;DHT22;52402;52.670;6.750;2023-08-07T14:06:58;15.60;99.90
60293;DHT22;52402;52.670;6.750;2023-08-07T14:09:24;15.70;99.90
60293;DHT22;52402;52.670;6.750;2023-08-07T14:11:51;16.00;99.90
60293;DHT22;52402;52.670;6.750;2023-08-07T14:14:16;16.10;99.90
60293;DHT22;52402;52.670;6.750;2023-08-07T14:16:43;16.10;99.90
60293;DHT22;52402;52.670;6.750;2023-08-07T14:19:09;16.00;99.90
60293;DHT22;52402;52.670;6.750;2023-08-07T14:21:34;16.20;99.90
60293;DHT22;52402;52.670;6.750;2023-08-07T14:24:00;16.40;99.90
60293;DHT22;52402;52.670;6.750;2023-08-07T14:26:26;16.60;99.90
60293;DHT22;52402;52.670;6.750;2023-08-07T14:28:52;16.70;99.90
60293;DHT22;52402;52.670;6.750;2023-08-07T14:31:17;16.80;99.90
60293;DHT22;52402;52.670;6.750;2023-08-07T14:33:43;16.70;99.90
60293;DHT22;52402;52.670;6.750;2023-08-07T14:36:09;16.50;99.90
60293;DHT22;52402;52.670;6.750;2023-08-07T14:39:10;16.20;99.90
60293;DHT22;52402;52.670;6.750;2023-08-07T14:41:36;15.80;99.90
60293;DHT22;52402;52.670;6.750;2023-08-07T14:44:01;15.60;99.90
60293;DHT22;52402;52.670;6.750;2023-08-07T14:46:27;15.60;99.90
60293;DHT22;52402;52.670;6.750;2023-08-07T14:48:53;15.30;99.90
60293;DHT22;52402;52.670;6.750;2023-08-07T14:51:18;15.40;99.90
60293;DHT22;52402;52.670;6.750;2023-08-07T14:53:44;15.70;99.90
60293;DHT22;52402;52.670;6.750;2023-08-07T14:56:10;16.20;99.90
60293;DHT22;52402;52.670;6.750;2023-08-07T14:58:35;16.60;99.90
60293;DHT22;52402;52.670;6.750;2023-08-07T15:01:01;16.60;99.90
60293;DHT22;52402;52.670;6.750;2023-08-07T15:03:27;16.50;99.90
60293;DHT22;52402;52.670;6.750;2023-08-07T15:05:52;16.50;99.90
60293;DHT22;52402;52.670;6.750;2023-08-07T15:08:18;16.40;99.90
60293;DHT22;52402;52.670;6.750;2023-08-07T15:10:44;16.30;99.90
60293;DHT22;52402;52.670;6.750;2023-08-07T15:13:09;16.10;99.90
60293;DHT22;52402;52.670;6.750;2023-08-07T15:15:35;15.90;99.90
60293;DHT22;52402;52.670;6.750;2023-08-07T15:18:01;15.80;99.90
60293;DHT22;52402;52.670;6.750;2023-08-07T15:20:33;15.80;99.90
60293;DHT22;52402;52.670;6.750;2023-08-07T15:22:58;15.80;99.90
60293;DHT22;52402;52.670;6.750;2023-08-07T15:25:27;15.80;99.90
60293;DHT22;52402;52.670;6.750;2023-08-07T15:27:53;15.80;99.90
60293;DHT22;52402;52.670;6.750;2023-08-07T15:30:20;15.80;99.90
60293;DHT22;52402;52.670;6.750;2023-08-07T15:32:46;15.80;99.90
60293;DHT22;52402;52.670;6.750;2023-08-07T15:35:12;15.80;99.90
60293;DHT22;52402;52.670;6.750;2023-08-07T15:37:37;15.90;99.90
60293;DHT22;52402;52.670;6.750;2023-08-07T15:40:03;15.90;99.90